Congerville, Illinois
Current Conditions -  °F | °C
As of 6:56 PM on Friday 24 Oct 2014 (Local Time) from KBMI Reporting Station
Haze Haze  
Wind Chill: 55°   Ceiling: Unl
Heat Index: 55°   Visibility: 5mi
Dew Point: 52°   Wind: 8mph
Humidity: 90%   Direction: 180°S
Pressure: 30"   Gusts: NA
Location:  40.62°N, 89.2°W
Report Text: KBMI 242356Z 18007KT 5SM BR CLR 13/11 A3000 RMK AO2 56003 60000 T01270111 10205 20127 SLP163 $
Loading
Personal Weather Stations






























Interactive Weather Map
Tropical Storm Tracking
New forecast layout! Learn more

10-Day Weather Forecast

Advertisements
Track Severe Weather on mobile